Time;durP1;ratioP1;P1;durP2;ratioP2;P2;SDS_P1;SDS_P2;PMS_P1;PMS_P2;Temp;Humidity;BMP_temperature;BMP_pressure;BME280_temperature;BME280_humidity;BME280_pressure;Samples;Min_cycle;Max_cycle;Signal;HPM_P1;HPM_P2
2022/01/01 00:01:41;;;;;;;29.63;23.35;;;;;;;;;;4956030;28;20031;-86
2022/01/01 00:04:08;;;;;;;27.15;20.90;;;;;;;;;;4955105;28;20034;-86
2022/01/01 00:06:34;;;;;;;29.85;22.00;;;;;;;;;;4955953;28;20034;-83
2022/01/01 00:09:02;;;;;;;26.58;19.75;;;;;;;;;;4952791;28;20034;-82
2022/01/01 00:11:30;;;;;;;24.95;18.63;;;;;;;;;;4953538;28;20046;-82
2022/01/01 00:13:58;;;;;;;26.10;19.75;;;;;;;;;;4947745;28;20027;-82
2022/01/01 00:16:25;;;;;;;25.02;18.90;;;;;;;;;;4952200;28;20142;-84
2022/01/01 00:18:54;;;;;;;25.25;19.23;;;;;;;;;;4950047;28;20023;-83
2022/01/01 00:21:21;;;;;;;26.90;20.15;;;;;;;;;;4949887;28;20061;-83
2022/01/01 00:23:49;;;;;;;26.60;20.10;;;;;;;;;;4949836;28;23353;-83
2022/01/01 00:26:16;;;;;;;27.38;20.48;;;;;;;;;;4949808;28;20034;-83
2022/01/01 00:28:45;;;;;;;26.92;20.85;;;;;;;;;;4949312;28;20027;-83
2022/01/01 00:31:13;;;;;;;28.08;21.13;;;;;;;;;;4946713;28;20121;-83
2022/01/01 00:33:40;;;;;;;27.75;19.50;;;;;;;;;;4945702;28;20445;-84
2022/01/01 00:36:09;;;;;;;30.55;23.73;;;;;;;;;;4945392;28;20033;-83
2022/01/01 00:38:35;;;;;;;33.75;25.80;;;;;;;;;;4954930;28;20077;-84
2022/01/01 00:41:08;;;;;;;32.28;23.90;;;;;;;;;;4943018;28;20038;-83
2022/01/01 00:43:38;;;;;;;29.50;22.30;;;;;;;;;;4946106;28;20022;-83
2022/01/01 00:46:06;;;;;;;31.15;22.77;;;;;;;;;;4945257;28;20058;-83
2022/01/01 00:48:33;;;;;;;30.17;22.05;;;;;;;;;;4963508;28;20041;-84
2022/01/01 00:54:00;;;;;;;30.60;22.85;;;;;;;;;;4948579;28;20873;-84
2022/01/01 00:56:29;;;;;;;34.42;23.30;;;;;;;;;;4945932;28;20251;-83
2022/01/01 00:58:56;;;;;;;30.42;22.20;;;;;;;;;;4930893;28;20031;-83
2022/01/01 01:01:24;;;;;;;30.55;21.08;;;;;;;;;;4949653;28;20178;-83
2022/01/01 01:03:52;;;;;;;30.98;22.13;;;;;;;;;;4942928;28;20050;-83
2022/01/01 01:06:20;;;;;;;29.25;21.27;;;;;;;;;;4942077;28;20161;-83
2022/01/01 01:08:49;;;;;;;30.80;22.08;;;;;;;;;;4934515;28;20039;-83
2022/01/01 01:11:16;;;;;;;32.47;20.60;;;;;;;;;;4941919;28;20055;-83
2022/01/01 01:13:44;;;;;;;32.13;21.02;;;;;;;;;;4932547;28;20101;-83
2022/01/01 01:16:13;;;;;;;29.13;20.23;;;;;;;;;;4895188;28;20053;-81
2022/01/01 01:18:41;;;;;;;30.23;20.17;;;;;;;;;;4927267;28;20034;-82
2022/01/01 01:21:10;;;;;;;30.40;20.83;;;;;;;;;;4942648;28;20035;-83
2022/01/01 01:23:37;;;;;;;29.00;18.98;;;;;;;;;;4945972;28;20035;-82
2022/01/01 01:26:04;;;;;;;;;;;;;;;;;;4941387;28;20050;-82
2022/01/01 01:28:31;;;;;;;;;;;;;;;;;;4944916;28;19953;-82
2022/01/01 01:31:00;;;;;;;28.20;17.85;;;;;;;;;;4944951;28;19913;-83
2022/01/01 01:33:26;;;;;;;31.88;20.38;;;;;;;;;;4944491;28;20034;-82
2022/01/01 01:35:53;;;;;;;;;;;;;;;;;;4941524;28;20034;-82
2022/01/01 01:38:20;;;;;;;29.50;20.10;;;;;;;;;;4929892;28;19941;-83
2022/01/01 01:40:48;;;;;;;28.67;19.23;;;;;;;;;;4946195;28;20027;-83
2022/01/01 01:43:17;;;;;;;31.73;20.55;;;;;;;;;;4942010;28;20122;-82
2022/01/01 01:45:46;;;;;;;30.92;19.27;;;;;;;;;;4931005;28;20486;-83
2022/01/01 01:48:13;;;;;;;27.90;19.15;;;;;;;;;;4942656;28;20023;-82
2022/01/01 01:50:40;;;;;;;;;;;;;;;;;;4930317;28;20031;-83
2022/01/01 01:53:08;;;;;;;32.17;20.38;;;;;;;;;;4905096;28;20009;-82
2022/01/01 01:55:39;;;;;;;28.50;18.92;;;;;;;;;;4907693;29;20163;-82
2022/01/01 01:58:07;;;;;;;28.35;18.15;;;;;;;;;;4899630;29;20862;-85
2022/01/01 02:03:20;;;;;;;28.00;17.67;;;;;;;;;;4895540;29;20375;-83
2022/01/01 02:05:48;;;;;;;28.42;18.80;;;;;;;;;;4907286;29;20163;-82
2022/01/01 02:08:17;;;;;;;26.63;18.02;;;;;;;;;;4874206;29;20086;-84
2022/01/01 02:10:47;;;;;;;27.05;17.27;;;;;;;;;;4906854;29;20203;-83
2022/01/01 02:13:26;;;;;;;25.38;17.60;;;;;;;;;;4871987;29;20036;-83
2022/01/01 02:16:26;;;;;;;28.17;18.63;;;;;;;;;;4888802;29;20081;-83
2022/01/01 02:18:51;;;;;;;26.55;18.70;;;;;;;;;;4913292;28;20038;-83
2022/01/01 02:21:20;;;;;;;24.80;17.65;;;;;;;;;;4911098;29;20032;-84
2022/01/01 02:23:46;;;;;;;26.08;18.00;;;;;;;;;;4895457;29;20100;-83
2022/01/01 02:26:20;;;;;;;23.27;15.77;;;;;;;;;;4909252;29;20047;-83
2022/01/01 02:28:49;;;;;;;22.25;15.82;;;;;;;;;;4894114;29;20035;-83
2022/01/01 02:31:16;;;;;;;24.48;16.75;;;;;;;;;;4910293;29;20040;-82
2022/01/01 02:33:47;;;;;;;23.92;16.42;;;;;;;;;;4911825;29;20039;-84
2022/01/01 02:36:15;;;;;;;22.88;16.23;;;;;;;;;;4868540;29;20037;-80
2022/01/01 02:38:42;;;;;;;22.85;15.15;;;;;;;;;;4870648;29;20047;-79
2022/01/01 02:41:10;;;;;;;23.25;16.10;;;;;;;;;;4869859;29;20589;-80
2022/01/01 02:43:36;;;;;;;;;;;;;;;;;;4871864;29;20036;-82
2022/01/01 02:46:04;;;;;;;27.38;18.45;;;;;;;;;;4856439;29;19919;-82
2022/01/01 02:48:37;;;;;;;26.83;17.90;;;;;;;;;;4855750;29;20488;-81
2022/01/01 02:51:05;;;;;;;24.33;16.83;;;;;;;;;;4822094;29;20790;-82
2022/01/01 02:53:31;;;;;;;25.38;16.52;;;;;;;;;;4870230;29;20073;-81
2022/01/01 02:55:58;;;;;;;24.35;16.40;;;;;;;;;;4867187;29;20146;-81
2022/01/01 02:58:27;;;;;;;26.75;18.40;;;;;;;;;;4896252;28;20789;-80
2022/01/01 03:00:54;;;;;;;23.05;16.63;;;;;;;;;;4926464;28;20039;-82
2022/01/01 03:03:23;;;;;;;22.55;16.23;;;;;;;;;;4952127;28;20033;-81
2022/01/01 03:05:54;;;;;;;22.75;16.20;;;;;;;;;;4963231;28;20038;-81
2022/01/01 03:08:20;;;;;;;22.45;15.95;;;;;;;;;;4911739;28;20031;-80
2022/01/01 03:10:49;;;;;;;23.15;16.65;;;;;;;;;;4947376;28;20122;-81
2022/01/01 03:13:16;;;;;;;23.48;17.33;;;;;;;;;;4945680;28;20462;-80
2022/01/01 03:15:44;;;;;;;26.02;18.30;;;;;;;;;;4950795;28;20500;-80
2022/01/01 03:18:14;;;;;;;23.55;16.83;;;;;;;;;;4944362;28;20038;-79
2022/01/01 03:20:41;;;;;;;24.73;17.42;;;;;;;;;;4941930;28;20066;-80
2022/01/01 03:23:10;;;;;;;25.52;17.17;;;;;;;;;;4947531;28;20046;-79
2022/01/01 03:25:37;;;;;;;25.58;17.48;;;;;;;;;;4945632;28;20109;-80
2022/01/01 03:28:04;;;;;;;;;;;;;;;;;;4961491;28;20045;-80
2022/01/01 03:30:33;;;;;;;24.70;17.42;;;;;;;;;;4949563;28;19918;-79
2022/01/01 03:32:59;;;;;;;24.05;16.55;;;;;;;;;;4927989;28;20516;-79
2022/01/01 03:35:25;;;;;;;;;;;;;;;;;;4950047;28;20126;-79
2022/01/01 03:37:54;;;;;;;24.88;16.85;;;;;;;;;;4944593;28;19940;-78
2022/01/01 03:40:24;;;;;;;25.63;18.15;;;;;;;;;;4945352;28;20126;-80
2022/01/01 03:42:51;;;;;;;26.40;18.20;;;;;;;;;;4928138;28;20446;-80
2022/01/01 03:45:18;;;;;;;26.45;19.20;;;;;;;;;;4946176;28;20089;-78
2022/01/01 03:47:46;;;;;;;26.40;18.10;;;;;;;;;;4945824;28;20014;-81
2022/01/01 03:50:15;;;;;;;24.38;16.98;;;;;;;;;;4941500;28;20140;-79
2022/01/01 03:52:55;;;;;;;25.00;17.80;;;;;;;;;;4930091;28;20152;-81
2022/01/01 03:55:21;;;;;;;23.33;16.40;;;;;;;;;;4967177;28;20034;-84
2022/01/01 03:57:51;;;;;;;24.05;17.08;;;;;;;;;;4948507;28;20078;-84
2022/01/01 04:00:18;;;;;;;22.23;16.08;;;;;;;;;;4953030;28;20027;-84
2022/01/01 04:02:47;;;;;;;26.35;17.75;;;;;;;;;;4953391;28;20048;-84
2022/01/01 04:05:15;;;;;;;25.33;17.23;;;;;;;;;;4949433;28;20106;-84
2022/01/01 04:07:43;;;;;;;22.27;15.70;;;;;;;;;;4967694;28;20030;-84
2022/01/01 04:10:11;;;;;;;23.67;16.88;;;;;;;;;;4970596;28;20027;-85
2022/01/01 04:12:41;;;;;;;24.52;16.98;;;;;;;;;;4974361;28;20047;-84
2022/01/01 04:15:09;;;;;;;20.60;14.38;;;;;;;;;;4952329;28;20019;-85
2022/01/01 04:17:38;;;;;;;20.20;14.25;;;;;;;;;;4955558;28;20560;-85
2022/01/01 04:20:08;;;;;;;20.65;14.48;;;;;;;;;;4958499;28;20037;-86
2022/01/01 04:22:37;;;;;;;19.25;13.32;;;;;;;;;;4949929;28;20078;-84
2022/01/01 04:25:05;;;;;;;21.02;13.55;;;;;;;;;;4936241;28;20034;-84
2022/01/01 04:27:33;;;;;;;21.55;13.90;;;;;;;;;;4937400;28;20034;-84
2022/01/01 04:29:59;;;;;;;19.92;13.15;;;;;;;;;;4947181;28;20121;-85
2022/01/01 04:32:25;;;;;;;;;;;;;;;;;;4950977;28;20057;-85
2022/01/01 04:34:57;;;;;;;21.75;13.82;;;;;;;;;;4947964;28;20602;-85
2022/01/01 04:37:27;;;;;;;21.08;13.35;;;;;;;;;;4953711;28;20026;-85
2022/01/01 04:39:59;;;;;;;18.30;12.35;;;;;;;;;;4934461;28;20042;-85
2022/01/01 04:42:26;;;;;;;18.42;12.25;;;;;;;;;;4951410;28;20054;-85
2022/01/01 04:44:54;;;;;;;18.08;11.93;;;;;;;;;;4931868;28;20039;-85
2022/01/01 04:47:23;;;;;;;19.60;13.20;;;;;;;;;;4921233;28;20066;-84
2022/01/01 04:49:51;;;;;;;19.58;12.77;;;;;;;;;;4948399;28;20034;-84
2022/01/01 04:52:18;;;;;;;17.90;11.70;;;;;;;;;;4933912;28;20034;-84
2022/01/01 04:54:46;;;;;;;16.30;10.27;;;;;;;;;;4933398;28;20054;-84
2022/01/01 04:57:14;;;;;;;16.70;11.35;;;;;;;;;;4930559;28;20170;-85
2022/01/01 04:59:46;;;;;;;19.05;12.10;;;;;;;;;;4931914;28;20150;-84
2022/01/01 05:02:12;;;;;;;16.55;10.82;;;;;;;;;;4913040;28;20047;-85
2022/01/01 05:04:42;;;;;;;16.67;10.68;;;;;;;;;;4933146;28;20038;-85
2022/01/01 05:07:12;;;;;;;18.08;11.57;;;;;;;;;;4945585;28;20110;-85
2022/01/01 05:09:41;;;;;;;17.63;10.63;;;;;;;;;;4933892;28;20093;-85
2022/01/01 05:12:08;;;;;;;16.83;10.55;;;;;;;;;;4925224;28;20150;-85
2022/01/01 05:14:35;;;;;;;16.63;10.45;;;;;;;;;;4925818;28;20070;-85
2022/01/01 05:17:04;;;;;;;17.30;10.30;;;;;;;;;;4927912;28;20577;-85
2022/01/01 05:19:36;;;;;;;17.70;10.45;;;;;;;;;;4911052;28;20043;-84
2022/01/01 05:22:02;;;;;;;15.50;9.35;;;;;;;;;;4923003;28;20035;-85
2022/01/01 05:24:36;;;;;;;16.77;9.48;;;;;;;;;;4925117;28;20134;-84
2022/01/01 05:27:02;;;;;;;15.30;8.88;;;;;;;;;;4921210;28;20047;-84
2022/01/01 05:29:31;;;;;;;16.08;9.20;;;;;;;;;;4926834;28;20050;-84
2022/01/01 05:32:02;;;;;;;14.68;8.80;;;;;;;;;;4921930;28;20039;-85
2022/01/01 05:34:30;;;;;;;13.95;8.45;;;;;;;;;;4895093;28;20032;-84
2022/01/01 05:36:58;;;;;;;15.13;8.55;;;;;;;;;;4924485;28;20042;-85
2022/01/01 05:39:27;;;;;;;14.30;8.60;;;;;;;;;;4927536;28;20035;-85
2022/01/01 05:41:54;;;;;;;13.77;8.30;;;;;;;;;;4906914;28;20035;-85
2022/01/01 05:44:23;;;;;;;14.45;8.60;;;;;;;;;;4927030;28;20035;-84
2022/01/01 05:46:53;;;;;;;15.35;8.43;;;;;;;;;;4927830;28;20027;-84
2022/01/01 05:49:22;;;;;;;14.52;8.80;;;;;;;;;;4923054;28;20039;-85
2022/01/01 05:51:48;;;;;;;15.98;8.18;;;;;;;;;;4928643;28;20140;-84
2022/01/01 05:54:18;;;;;;;14.20;8.40;;;;;;;;;;4928948;28;20058;-85
2022/01/01 05:56:45;;;;;;;13.57;7.90;;;;;;;;;;4930737;28;20061;-85
2022/01/01 05:59:13;;;;;;;13.52;7.93;;;;;;;;;;4928898;28;20062;-85
2022/01/01 06:01:42;;;;;;;13.63;7.97;;;;;;;;;;4933883;28;20746;-85
2022/01/01 06:04:11;;;;;;;13.77;7.53;;;;;;;;;;4933887;28;20732;-84
2022/01/01 06:06:39;;;;;;;12.55;7.45;;;;;;;;;;4936584;28;20153;-84
2022/01/01 06:09:05;;;;;;;12.82;7.55;;;;;;;;;;4900730;28;20031;-85
2022/01/01 06:11:32;;;;;;;13.95;8.43;;;;;;;;;;4932807;28;20034;-84
2022/01/01 06:14:01;;;;;;;13.10;7.30;;;;;;;;;;4947421;28;20129;-83
2022/01/01 06:16:29;;;;;;;12.82;7.18;;;;;;;;;;4948087;28;20941;-84
2022/01/01 06:18:58;;;;;;;13.60;8.07;;;;;;;;;;4946956;28;20085;-85
2022/01/01 06:21:27;;;;;;;13.77;8.00;;;;;;;;;;4948944;28;20868;-84
2022/01/01 06:23:54;;;;;;;13.07;7.68;;;;;;;;;;4925570;28;20045;-85
2022/01/01 06:26:22;;;;;;;13.77;7.55;;;;;;;;;;4911933;28;20027;-84
2022/01/01 06:28:48;;;;;;;12.35;7.00;;;;;;;;;;4928075;28;20027;-85
2022/01/01 06:31:16;;;;;;;12.57;7.22;;;;;;;;;;4925468;28;20097;-85
2022/01/01 06:33:43;;;;;;;12.30;7.47;;;;;;;;;;4910523;28;20565;-85
2022/01/01 06:36:13;;;;;;;11.93;7.13;;;;;;;;;;4925470;28;20429;-85
2022/01/01 06:38:42;;;;;;;12.45;7.28;;;;;;;;;;4895222;28;20043;-85
2022/01/01 06:41:10;;;;;;;13.35;7.50;;;;;;;;;;4908677;28;20035;-85
2022/01/01 06:43:38;;;;;;;13.48;7.38;;;;;;;;;;4932774;28;20311;-85
2022/01/01 06:46:06;;;;;;;12.32;6.75;;;;;;;;;;4927101;28;20035;-85
2022/01/01 06:48:35;;;;;;;12.20;7.00;;;;;;;;;;4928977;28;20710;-85
2022/01/01 06:51:01;;;;;;;10.90;6.15;;;;;;;;;;4906648;28;20027;-85
2022/01/01 06:53:30;;;;;;;11.18;6.30;;;;;;;;;;4927818;28;20043;-85
2022/01/01 06:56:04;;;;;;;11.13;6.55;;;;;;;;;;4907021;28;20146;-85
2022/01/01 06:58:34;;;;;;;10.93;6.03;;;;;;;;;;4894137;29;20616;-84
2022/01/01 07:01:03;;;;;;;11.43;6.28;;;;;;;;;;4892060;29;20126;-85
2022/01/01 07:03:32;;;;;;;11.77;6.40;;;;;;;;;;4909666;29;20162;-85
2022/01/01 07:06:01;;;;;;;11.05;6.22;;;;;;;;;;4894114;29;20094;-84
2022/01/01 07:08:31;;;;;;;12.90;6.22;;;;;;;;;;4897472;29;20047;-84
2022/01/01 07:11:01;;;;;;;11.90;6.72;;;;;;;;;;4894238;29;20077;-84
2022/01/01 07:13:29;;;;;;;13.05;7.30;;;;;;;;;;4901656;28;20055;-85
2022/01/01 07:15:57;;;;;;;12.70;7.32;;;;;;;;;;4931072;28;20050;-86
2022/01/01 07:18:24;;;;;;;12.82;7.35;;;;;;;;;;4932166;28;20069;-85
2022/01/01 07:20:53;;;;;;;11.98;7.03;;;;;;;;;;4915912;28;20035;-84
2022/01/01 07:23:19;;;;;;;13.45;7.05;;;;;;;;;;4927731;28;20051;-84
2022/01/01 07:25:47;;;;;;;12.07;7.47;;;;;;;;;;4931195;28;20109;-83
2022/01/01 07:28:16;;;;;;;11.10;6.20;;;;;;;;;;4910569;28;20034;-84
2022/01/01 07:30:45;;;;;;;12.23;7.93;;;;;;;;;;4932490;28;20624;-83
2022/01/01 07:33:14;;;;;;;12.23;7.65;;;;;;;;;;4913522;28;20046;-84
2022/01/01 07:35:44;;;;;;;12.80;7.32;;;;;;;;;;4913800;28;20043;-84
2022/01/01 07:38:10;;;;;;;13.07;7.80;;;;;;;;;;4928616;28;20901;-84
2022/01/01 07:40:41;;;;;;;13.85;8.43;;;;;;;;;;4930943;28;20031;-84
2022/01/01 07:43:26;;;;;;;13.77;7.05;;;;;;;;;;4926523;28;20126;-84
2022/01/01 07:45:53;;;;;;;13.73;8.50;;;;;;;;;;4912313;28;20253;-85
2022/01/01 07:48:21;;;;;;;11.90;6.95;;;;;;;;;;4931124;28;20027;-84
2022/01/01 07:50:49;;;;;;;13.63;7.82;;;;;;;;;;4916034;28;20043;-85
2022/01/01 07:53:15;;;;;;;15.38;9.13;;;;;;;;;;4896391;28;20730;-87
2022/01/01 07:55:43;;;;;;;13.98;8.40;;;;;;;;;;4932532;28;21301;-84
2022/01/01 07:58:11;;;;;;;15.55;9.43;;;;;;;;;;4940456;28;20054;-85
2022/01/01 08:00:40;;;;;;;15.27;9.38;;;;;;;;;;4946487;28;20055;-84
2022/01/01 08:03:08;;;;;;;12.98;7.90;;;;;;;;;;4954084;28;20137;-85
2022/01/01 08:05:34;;;;;;;13.40;8.35;;;;;;;;;;4956630;28;20058;-84
2022/01/01 08:08:02;;;;;;;15.27;8.90;;;;;;;;;;4954708;28;20043;-85
2022/01/01 08:10:31;;;;;;;12.98;8.60;;;;;;;;;;4951759;28;20035;-85
2022/01/01 08:12:59;;;;;;;14.73;9.10;;;;;;;;;;4950233;28;20132;-85
2022/01/01 08:15:27;;;;;;;12.35;7.68;;;;;;;;;;4950421;28;20065;-84
2022/01/01 08:17:57;;;;;;;13.48;8.02;;;;;;;;;;4948774;28;20112;-85
2022/01/01 08:20:26;;;;;;;14.30;8.75;;;;;;;;;;4945974;28;20038;-84
2022/01/01 08:22:54;;;;;;;14.02;8.15;;;;;;;;;;4943936;28;20121;-84
2022/01/01 08:25:24;;;;;;;15.73;9.77;;;;;;;;;;4944037;28;20046;-84
2022/01/01 08:27:53;;;;;;;14.85;8.95;;;;;;;;;;4945317;28;20110;-85
2022/01/01 08:30:23;;;;;;;15.05;8.88;;;;;;;;;;4944278;28;20042;-86
2022/01/01 08:32:51;;;;;;;14.20;8.80;;;;;;;;;;4947551;28;20054;-85
2022/01/01 08:35:20;;;;;;;15.85;8.57;;;;;;;;;;4928135;28;20043;-85
2022/01/01 08:37:49;;;;;;;15.40;9.15;;;;;;;;;;4954082;28;20090;-84
2022/01/01 08:40:17;;;;;;;14.85;9.02;;;;;;;;;;4951400;28;20085;-85
2022/01/01 08:42:44;;;;;;;15.02;9.35;;;;;;;;;;4951132;28;20042;-85
2022/01/01 08:45:10;;;;;;;18.48;11.38;;;;;;;;;;4951163;28;20046;-85
2022/01/01 08:47:38;;;;;;;15.02;9.15;;;;;;;;;;4954029;28;20049;-85
2022/01/01 08:50:08;;;;;;;14.02;8.73;;;;;;;;;;4948579;28;20038;-84
2022/01/01 08:52:37;;;;;;;13.48;8.15;;;;;;;;;;4951999;28;20030;-84
2022/01/01 08:55:06;;;;;;;15.77;9.30;;;;;;;;;;4946128;28;20067;-84
2022/01/01 08:57:34;;;;;;;13.70;8.77;;;;;;;;;;4949399;28;20138;-83
2022/01/01 09:00:04;;;;;;;14.98;8.98;;;;;;;;;;4946498;28;20180;-84
2022/01/01 09:02:33;;;;;;;13.98;8.57;;;;;;;;;;4951282;28;20034;-84
2022/01/01 09:05:01;;;;;;;13.38;8.13;;;;;;;;;;4942565;28;20788;-85
2022/01/01 09:07:29;;;;;;;14.57;8.55;;;;;;;;;;4954384;28;20031;-91
2022/01/01 09:09:59;;;;;;;14.25;8.50;;;;;;;;;;4955979;28;20075;-90
2022/01/01 09:12:29;;;;;;;13.25;8.05;;;;;;;;;;4957867;28;20471;-88
2022/01/01 09:14:58;;;;;;;14.48;8.93;;;;;;;;;;4940205;28;20078;-88
2022/01/01 09:17:25;;;;;;;17.35;8.45;;;;;;;;;;4937799;28;20827;-90
2022/01/01 09:19:55;;;;;;;13.82;8.40;;;;;;;;;;4961367;28;20027;-92
2022/01/01 09:22:22;;;;;;;13.35;8.07;;;;;;;;;;4942694;28;20027;-90
2022/01/01 09:24:50;;;;;;;12.48;7.93;;;;;;;;;;4963249;28;20098;-88
2022/01/01 09:27:17;;;;;;;12.82;8.00;;;;;;;;;;4961576;28;20026;-86
2022/01/01 09:29:43;;;;;;;14.45;8.75;;;;;;;;;;4962696;28;20073;-86
2022/01/01 09:32:12;;;;;;;13.35;8.40;;;;;;;;;;4944008;28;20161;-86
2022/01/01 09:34:38;;;;;;;15.65;9.15;;;;;;;;;;4961578;28;20031;-87
2022/01/01 09:37:06;;;;;;;15.18;9.05;;;;;;;;;;4923738;28;20035;-84
2022/01/01 09:39:34;;;;;;;15.18;8.98;;;;;;;;;;4953156;28;20030;-83
2022/01/01 09:42:02;;;;;;;13.55;8.48;;;;;;;;;;4936334;28;20085;-84
2022/01/01 09:44:33;;;;;;;14.63;9.55;;;;;;;;;;4951819;28;20027;-84
2022/01/01 09:47:00;;;;;;;15.43;9.98;;;;;;;;;;4945890;28;20031;-84
2022/01/01 09:49:27;;;;;;;14.38;8.95;;;;;;;;;;4950176;28;20039;-83
2022/01/01 09:51:54;;;;;;;13.48;8.45;;;;;;;;;;4944051;28;20053;-83
2022/01/01 09:54:23;;;;;;;14.43;8.80;;;;;;;;;;4932259;28;20339;-83
2022/01/01 09:56:52;;;;;;;15.75;9.70;;;;;;;;;;4945533;28;20109;-83
2022/01/01 09:59:20;;;;;;;17.33;10.18;;;;;;;;;;4948906;28;20043;-83
2022/01/01 10:01:47;;;;;;;15.25;9.88;;;;;;;;;;4933484;28;20034;-83
2022/01/01 10:04:16;;;;;;;14.85;9.98;;;;;;;;;;4948842;28;20041;-82
2022/01/01 10:06:43;;;;;;;16.38;10.05;;;;;;;;;;4949344;28;20034;-82
2022/01/01 10:09:14;;;;;;;15.38;10.27;;;;;;;;;;4950069;28;20234;-82
2022/01/01 10:11:41;;;;;;;15.00;9.75;;;;;;;;;;4939175;28;20039;-80
2022/01/01 10:14:09;;;;;;;15.60;9.95;;;;;;;;;;4950317;28;20033;-83
2022/01/01 10:16:44;;;;;;;14.00;9.20;;;;;;;;;;4954617;28;20019;-82
2022/01/01 10:19:13;;;;;;;16.35;9.98;;;;;;;;;;4951522;28;20042;-82
2022/01/01 10:21:42;;;;;;;15.85;10.15;;;;;;;;;;4955961;28;20031;-79
2022/01/01 10:24:14;;;;;;;15.38;10.65;;;;;;;;;;4931901;28;20094;-79
2022/01/01 10:29:29;;;;;;;16.48;10.13;;;;;;;;;;4939374;28;20440;-78
2022/01/01 10:32:00;;;;;;;17.35;11.05;;;;;;;;;;4931458;28;20505;-80
2022/01/01 10:34:32;;;;;;;14.93;9.63;;;;;;;;;;4925971;28;20055;-77
2022/01/01 10:37:01;;;;;;;14.45;9.05;;;;;;;;;;4910626;28;20059;-78
2022/01/01 10:39:32;;;;;;;15.02;10.10;;;;;;;;;;4913535;28;20041;-79
2022/01/01 10:42:04;;;;;;;15.52;9.48;;;;;;;;;;4929058;28;20117;-77
2022/01/01 10:44:36;;;;;;;14.30;9.30;;;;;;;;;;4914862;28;20046;-80
2022/01/01 10:47:08;;;;;;;16.70;10.60;;;;;;;;;;4929503;28;20195;-80
2022/01/01 10:49:51;;;;;;;15.70;9.88;;;;;;;;;;4916822;28;20031;-79
2022/01/01 10:52:22;;;;;;;16.20;10.50;;;;;;;;;;4929668;28;20045;-81
2022/01/01 10:54:53;;;;;;;15.77;10.00;;;;;;;;;;4927988;28;20042;-80
2022/01/01 10:57:34;;;;;;;15.50;10.20;;;;;;;;;;4914107;28;20059;-79
2022/01/01 11:00:09;;;;;;;15.90;10.25;;;;;;;;;;4923610;28;20042;-78
2022/01/01 11:02:40;;;;;;;17.60;11.17;;;;;;;;;;4927127;28;20500;-78
2022/01/01 11:05:07;;;;;;;15.70;10.27;;;;;;;;;;4932252;28;20218;-79
2022/01/01 11:07:36;;;;;;;16.08;10.70;;;;;;;;;;4935929;28;20556;-78
2022/01/01 11:10:03;;;;;;;16.05;9.98;;;;;;;;;;4946594;28;20038;-79
2022/01/01 11:12:32;;;;;;;16.20;10.15;;;;;;;;;;4948887;28;20058;-78
2022/01/01 11:15:07;;;;;;;17.13;11.85;;;;;;;;;;4920640;28;20058;-79
2022/01/01 11:17:34;;;;;;;18.85;11.90;;;;;;;;;;4945735;28;20516;-79
2022/01/01 11:20:03;;;;;;;29.20;22.80;;;;;;;;;;4915076;28;20045;-80
2022/01/01 11:22:31;;;;;;;19.05;13.43;;;;;;;;;;4931948;28;20042;-79
2022/01/01 11:25:00;;;;;;;17.85;11.85;;;;;;;;;;4941511;28;20599;-81
2022/01/01 11:27:27;;;;;;;16.77;11.20;;;;;;;;;;4944216;28;20142;-78
2022/01/01 11:30:00;;;;;;;17.02;11.40;;;;;;;;;;4910680;28;20054;-78
2022/01/01 11:32:51;;;;;;;16.77;11.27;;;;;;;;;;4930879;28;20047;-79
2022/01/01 11:35:30;;;;;;;16.77;11.45;;;;;;;;;;4929097;28;20041;-78
2022/01/01 11:38:03;;;;;;;17.55;12.27;;;;;;;;;;4949173;28;20038;-78
2022/01/01 11:40:56;;;;;;;16.58;11.95;;;;;;;;;;4947801;28;20031;-79
2022/01/01 11:43:46;;;;;;;17.38;11.65;;;;;;;;;;4930990;28;20104;-79
2022/01/01 11:46:17;;;;;;;18.60;12.63;;;;;;;;;;4947539;28;20040;-79
2022/01/01 11:49:02;;;;;;;15.75;10.05;;;;;;;;;;4931042;28;20769;-80
2022/01/01 11:51:48;;;;;;;18.52;11.63;;;;;;;;;;4947256;28;20081;-80
2022/01/01 11:54:17;;;;;;;;;;;;;;;;;;4946255;28;20022;-82
2022/01/01 11:56:50;;;;;;;15.05;10.43;;;;;;;;;;4948669;28;19929;-80
2022/01/01 11:59:26;;;;;;;14.48;9.52;;;;;;;;;;4942341;28;20051;-82
2022/01/01 12:02:11;;;;;;;14.40;8.90;;;;;;;;;;4944376;28;20081;-81
2022/01/01 12:04:43;;;;;;;14.77;9.68;;;;;;;;;;4934260;28;20070;-82
2022/01/01 12:07:22;;;;;;;17.08;10.88;;;;;;;;;;4943748;28;20030;-81
2022/01/01 12:10:08;;;;;;;15.38;10.45;;;;;;;;;;4950357;28;20034;-82
2022/01/01 12:12:53;;;;;;;14.52;10.18;;;;;;;;;;4950088;28;20050;-82
2022/01/01 12:15:24;;;;;;;14.98;9.23;;;;;;;;;;4950908;28;20046;-82
2022/01/01 12:17:58;;;;;;;14.05;9.75;;;;;;;;;;4946819;28;20057;-82
2022/01/01 12:20:52;;;;;;;16.23;10.90;;;;;;;;;;4949898;28;20030;-82
2022/01/01 12:23:24;;;;;;;16.30;10.63;;;;;;;;;;4947827;28;20780;-81
2022/01/01 12:25:56;;;;;;;14.75;10.57;;;;;;;;;;4944149;28;20493;-81
2022/01/01 12:28:29;;;;;;;15.00;9.52;;;;;;;;;;4944426;28;20042;-81
2022/01/01 12:31:07;;;;;;;13.63;9.05;;;;;;;;;;4960134;28;20039;-81
2022/01/01 12:33:43;;;;;;;15.45;10.68;;;;;;;;;;4946240;28;20813;-81
2022/01/01 12:36:16;;;;;;;16.33;10.57;;;;;;;;;;4961806;28;21357;-81
2022/01/01 12:39:03;;;;;;;15.02;10.43;;;;;;;;;;4946809;28;20084;-81
2022/01/01 12:41:30;;;;;;;;;;;;;;;;;;4947598;28;20134;-82
2022/01/01 12:44:04;;;;;;;14.23;8.82;;;;;;;;;;4943928;28;19989;-82
2022/01/01 12:46:32;;;;;;;13.63;9.27;;;;;;;;;;4930850;28;20046;-82
2022/01/01 12:49:02;;;;;;;14.15;8.38;;;;;;;;;;4945375;28;20034;-83
2022/01/01 12:51:40;;;;;;;14.45;9.27;;;;;;;;;;4950039;28;20038;-83
2022/01/01 12:54:15;;;;;;;14.80;9.20;;;;;;;;;;4910765;28;20043;-83
2022/01/01 12:56:45;;;;;;;13.65;8.68;;;;;;;;;;4944415;28;20034;-82
2022/01/01 12:59:17;;;;;;;12.63;8.18;;;;;;;;;;4959728;28;20749;-83
2022/01/01 13:01:47;;;;;;;11.88;7.43;;;;;;;;;;4944821;28;20042;-83
2022/01/01 13:04:28;;;;;;;12.40;7.47;;;;;;;;;;4942105;28;20038;-82
2022/01/01 13:06:59;;;;;;;14.32;8.98;;;;;;;;;;4944159;28;20043;-82
2022/01/01 13:09:29;;;;;;;15.40;8.98;;;;;;;;;;4945923;28;20030;-81
2022/01/01 13:12:02;;;;;;;14.80;9.02;;;;;;;;;;4958300;28;20785;-81
2022/01/01 13:14:32;;;;;;;13.30;8.70;;;;;;;;;;4944109;28;20035;-82
2022/01/01 13:17:02;;;;;;;13.13;8.57;;;;;;;;;;4945801;28;20039;-81
2022/01/01 13:19:36;;;;;;;14.55;7.15;;;;;;;;;;4948141;28;20043;-82
2022/01/01 13:22:14;;;;;;;12.65;7.78;;;;;;;;;;4944287;28;20045;-81
2022/01/01 13:24:42;;;;;;;13.80;8.98;;;;;;;;;;4945081;28;20845;-82
2022/01/01 13:27:10;;;;;;;14.98;10.30;;;;;;;;;;4947307;28;20061;-84
2022/01/01 13:29:40;;;;;;;14.63;9.98;;;;;;;;;;4946413;28;20039;-84
2022/01/01 13:32:11;;;;;;;15.10;9.90;;;;;;;;;;4958743;28;20043;-84
2022/01/01 13:34:41;;;;;;;14.43;8.90;;;;;;;;;;4959821;28;20038;-85
2022/01/01 13:37:11;;;;;;;13.25;8.40;;;;;;;;;;4942946;28;20038;-85
2022/01/01 13:39:39;;;;;;;12.35;7.07;;;;;;;;;;4963850;28;20853;-83
2022/01/01 13:42:08;;;;;;;11.32;7.10;;;;;;;;;;4945425;28;20565;-86
2022/01/01 13:44:42;;;;;;;12.15;7.45;;;;;;;;;;4944421;28;20038;-85
2022/01/01 13:47:18;;;;;;;13.45;8.05;;;;;;;;;;4959267;28;20072;-85
2022/01/01 13:49:55;;;;;;;13.50;8.13;;;;;;;;;;4948435;28;20039;-85
2022/01/01 13:52:22;;;;;;;;;;;;;;;;;;4948561;28;20042;-83
2022/01/01 13:54:55;;;;;;;15.15;8.77;;;;;;;;;;4959762;28;19921;-85
2022/01/01 13:57:28;;;;;;;13.60;8.50;;;;;;;;;;4947033;28;20166;-83
2022/01/01 13:59:58;;;;;;;10.88;6.65;;;;;;;;;;4927229;28;20047;-83
2022/01/01 14:02:33;;;;;;;11.93;6.82;;;;;;;;;;4946561;28;20045;-82
2022/01/01 14:05:03;;;;;;;9.73;5.85;;;;;;;;;;4940102;28;20120;-80
2022/01/01 14:07:31;;;;;;;11.18;6.85;;;;;;;;;;4928155;28;20039;-80
2022/01/01 14:10:11;;;;;;;11.45;6.68;;;;;;;;;;4939540;28;20031;-81
2022/01/01 14:12:44;;;;;;;13.07;7.40;;;;;;;;;;4900367;28;20047;-82
2022/01/01 14:15:12;;;;;;;12.18;7.20;;;;;;;;;;4948175;28;20038;-82
2022/01/01 14:18:00;;;;;;;12.88;7.82;;;;;;;;;;4945301;28;20035;-81
2022/01/01 14:20:39;;;;;;;12.75;7.40;;;;;;;;;;4961366;28;20107;-82
2022/01/01 14:23:07;;;;;;;13.00;7.88;;;;;;;;;;4943113;28;20932;-82
2022/01/01 14:25:35;;;;;;;11.68;7.40;;;;;;;;;;4944312;28;20382;-82
2022/01/01 14:28:08;;;;;;;13.77;7.85;;;;;;;;;;4943012;28;20039;-80
2022/01/01 14:30:37;;;;;;;12.40;8.02;;;;;;;;;;4962278;28;20024;-82
2022/01/01 14:33:08;;;;;;;12.65;7.95;;;;;;;;;;4940682;28;20042;-80
2022/01/01 14:35:37;;;;;;;12.13;7.00;;;;;;;;;;4930520;28;20608;-80
2022/01/01 14:38:04;;;;;;;11.50;6.75;;;;;;;;;;4928933;28;20489;-81
2022/01/01 14:40:32;;;;;;;11.65;6.53;;;;;;;;;;4947679;28;20069;-81
2022/01/01 14:43:01;;;;;;;9.70;6.22;;;;;;;;;;4944449;28;20070;-81
2022/01/01 14:45:39;;;;;;;11.23;6.05;;;;;;;;;;4953014;28;20023;-81
2022/01/01 14:48:27;;;;;;;11.50;6.28;;;;;;;;;;4943857;28;20042;-86
2022/01/01 14:51:07;;;;;;;13.05;9.13;;;;;;;;;;4933432;28;20047;-85
2022/01/01 14:53:52;;;;;;;15.70;11.23;;;;;;;;;;4951619;28;20339;-81